Time;durP1;ratioP1;P1;durP2;ratioP2;P2;SDS_P1;SDS_P2;PMS_P1;PMS_P2;Temp;Humidity;BMP_temperature;BMP_pressure;BME280_temperature;BME280_humidity;BME280_pressure;Samples;Min_cycle;Max_cycle;Signal;HPM_P1;HPM_P2
2021/07/26 00:02:10;;;;;;;30.80;27.73;;;19.80;99.90;;;;;;5095353;28;20365;-89
2021/07/26 00:04:37;;;;;;;32.53;29.42;;;19.70;99.90;;;;;;5072076;28;20460;-88
2021/07/26 00:07:04;;;;;;;30.67;27.65;;;19.70;99.90;;;;;;5076686;28;20462;-88
2021/07/26 00:09:33;;;;;;;30.50;27.60;;;19.80;99.90;;;;;;5073888;28;20390;-88
2021/07/26 00:11:59;;;;;;;30.40;27.30;;;19.80;99.90;;;;;;5073488;28;20411;-87
2021/07/26 00:14:24;;;;;;;31.57;28.17;;;19.70;99.90;;;;;;5073102;28;20885;-88
2021/07/26 00:16:50;;;;;;;31.73;28.52;;;19.70;99.90;;;;;;5074362;28;20447;-87
2021/07/26 00:19:16;;;;;;;29.80;26.80;;;19.70;99.90;;;;;;5074561;28;20721;-87
2021/07/26 00:21:41;;;;;;;29.27;26.17;;;19.70;99.90;;;;;;5073192;28;20887;-87
2021/07/26 00:24:07;;;;;;;29.47;26.57;;;19.70;99.90;;;;;;5077504;28;20754;-89
2021/07/26 00:26:32;;;;;;;28.00;25.13;;;19.70;99.90;;;;;;5076663;28;20392;-88
2021/07/26 00:28:58;;;;;;;27.53;24.63;;;19.60;99.90;;;;;;5079161;28;20454;-86
2021/07/26 00:31:24;;;;;;;27.52;24.80;;;19.60;99.90;;;;;;5075272;28;20401;-88
2021/07/26 00:34:08;;;;;;;31.10;27.83;;;19.60;99.90;;;;;;5074306;28;20384;-86
2021/07/26 00:36:44;;;;;;;32.83;29.65;;;19.60;99.90;;;;;;5072569;28;20388;-87
2021/07/26 00:39:11;;;;;;;35.13;31.15;;;19.60;99.90;;;;;;5072261;28;20416;-86
2021/07/26 00:41:38;;;;;;;32.38;29.30;;;19.60;99.90;;;;;;5076980;28;20384;-87
2021/07/26 00:44:05;;;;;;;29.60;26.60;;;19.60;99.90;;;;;;5075466;28;20375;-85
2021/07/26 00:46:31;;;;;;;31.90;28.90;;;19.60;99.90;;;;;;5072794;28;20465;-87
2021/07/26 00:48:57;;;;;;;30.05;27.08;;;19.60;99.90;;;;;;5077244;28;20823;-89
2021/07/26 00:51:23;;;;;;;30.88;27.90;;;19.60;99.90;;;;;;5076089;28;20413;-90
2021/07/26 00:53:49;;;;;;;30.77;27.85;;;19.60;99.90;;;;;;5068714;28;20896;-88
2021/07/26 00:56:16;;;;;;;32.90;29.60;;;19.60;99.90;;;;;;5090826;28;20373;-86
2021/07/26 00:58:42;;;;;;;31.83;28.83;;;19.60;99.90;;;;;;5093911;28;20383;-87
2021/07/26 01:01:09;;;;;;;33.85;30.73;;;19.70;99.90;;;;;;5092234;28;20869;-86
2021/07/26 01:03:36;;;;;;;34.75;31.45;;;19.70;99.90;;;;;;5092221;28;20373;-88
2021/07/26 01:06:02;;;;;;;33.67;30.38;;;19.70;99.90;;;;;;5093331;28;20372;-87
2021/07/26 01:08:28;;;;;;;34.55;30.95;;;19.70;99.90;;;;;;5076462;28;20364;-87
2021/07/26 01:10:54;;;;;;;34.93;31.53;;;19.80;99.90;;;;;;5084120;28;20483;-86
2021/07/26 01:13:19;;;;;;;33.92;30.35;;;19.80;99.90;;;;;;5090038;28;20476;-88
2021/07/26 01:15:45;;;;;;;35.90;32.33;;;19.80;99.90;;;;;;5089289;28;20475;-85
2021/07/26 01:18:18;;;;;;;35.78;32.25;;;19.80;99.90;;;;;;5072517;28;20376;-88
2021/07/26 01:20:44;;;;;;;36.45;32.83;;;19.80;99.90;;;;;;5089491;28;20380;-88
2021/07/26 01:23:09;;;;;;;34.90;31.38;;;19.80;99.90;;;;;;5090605;28;20431;-88
2021/07/26 01:25:36;;;;;;;35.80;32.20;;;19.80;99.90;;;;;;5089333;28;20357;-89
2021/07/26 01:28:02;;;;;;;35.60;32.10;;;19.90;99.90;;;;;;5089128;28;20479;-86
2021/07/26 01:30:27;;;;;;;34.08;30.58;;;19.90;99.90;;;;;;5090703;28;20540;-90
2021/07/26 01:32:53;;;;;;;33.60;30.27;;;19.90;99.90;;;;;;5090959;28;20723;-87
2021/07/26 01:35:18;;;;;;;33.90;30.60;;;20.10;99.90;;;;;;5072093;28;20396;-88
2021/07/26 01:37:44;;;;;;;32.87;29.67;;;20.10;99.90;;;;;;5090750;28;20368;-87
2021/07/26 01:40:10;;;;;;;31.55;28.45;;;20.10;99.90;;;;;;5089251;28;20734;-87
2021/07/26 01:42:43;;;;;;;32.45;29.35;;;20.10;99.90;;;;;;5089255;28;20469;-88
2021/07/26 01:45:10;;;;;;;32.00;28.95;;;20.10;99.90;;;;;;5090816;28;20400;-88
2021/07/26 01:47:48;;;;;;;31.13;28.08;;;20.10;99.90;;;;;;5079175;28;20369;-88
2021/07/26 01:50:19;;;;;;;32.80;29.50;;;20.10;99.90;;;;;;5095575;28;20399;-87
2021/07/26 01:52:45;;;;;;;32.88;29.65;;;20.00;99.90;;;;;;5095614;28;20376;-87
2021/07/26 01:55:12;;;;;;;30.85;27.70;;;20.00;99.90;;;;;;5095912;28;20383;-87
2021/07/26 01:57:38;;;;;;;32.22;28.95;;;20.00;99.90;;;;;;5074181;28;20873;-89
2021/07/26 02:00:05;;;;;;;31.90;28.63;;;19.90;99.90;;;;;;5090461;28;20401;-87
2021/07/26 02:02:31;;;;;;;30.42;27.35;;;19.90;99.90;;;;;;5090428;28;20466;-87
2021/07/26 02:04:58;;;;;;;30.25;27.30;;;19.90;99.90;;;;;;5072209;28;20862;-86
2021/07/26 02:07:24;;;;;;;33.03;29.77;;;19.80;99.90;;;;;;5071757;28;20728;-85
2021/07/26 02:09:50;;;;;;;30.33;27.35;;;19.90;99.90;;;;;;5072632;28;20951;-86
2021/07/26 02:12:15;;;;;;;32.27;29.27;;;19.80;99.90;;;;;;5089980;28;20453;-88
2021/07/26 02:14:41;;;;;;;32.50;29.20;;;19.80;99.90;;;;;;5072204;28;20392;-88
2021/07/26 02:17:07;;;;;;;30.27;27.23;;;19.90;99.90;;;;;;5071836;28;20388;-86
2021/07/26 02:19:33;;;;;;;31.67;28.67;;;19.90;99.90;;;;;;5071654;28;20377;-87
2021/07/26 02:21:59;;;;;;;29.93;26.97;;;19.90;99.90;;;;;;5089586;28;20417;-87
2021/07/26 02:24:25;;;;;;;31.63;28.58;;;19.90;99.90;;;;;;5089594;28;20464;-84
2021/07/26 02:26:50;;;;;;;32.22;29.02;;;19.80;99.90;;;;;;5071854;28;20380;-88
2021/07/26 02:29:16;;;;;;;33.10;29.77;;;19.70;99.90;;;;;;5072070;28;20381;-88
2021/07/26 02:31:41;;;;;;;33.30;29.88;;;19.60;99.90;;;;;;5089625;28;20450;-87
2021/07/26 02:34:07;;;;;;;32.17;29.07;;;19.70;99.90;;;;;;5071568;28;20461;-88
2021/07/26 02:36:33;;;;;;;32.85;29.65;;;19.60;99.90;;;;;;5092019;28;20368;-86
2021/07/26 02:38:58;;;;;;;32.57;29.37;;;19.50;99.90;;;;;;5075061;28;20784;-87
2021/07/26 02:41:24;;;;;;;32.03;29.10;;;19.60;99.90;;;;;;5093789;28;20525;-87
2021/07/26 02:43:52;;;;;;;30.00;27.20;;;19.50;99.90;;;;;;5078583;28;20869;-87
2021/07/26 02:46:18;;;;;;;30.65;27.75;;;19.50;99.90;;;;;;5098157;28;20368;-88
2021/07/26 02:48:43;;;;;;;30.77;27.77;;;19.50;99.90;;;;;;5097847;28;20427;-88
2021/07/26 02:51:09;;;;;;;30.00;27.08;;;19.50;99.90;;;;;;5098839;28;20402;-87
2021/07/26 02:53:34;;;;;;;31.70;28.57;;;19.50;99.90;;;;;;5099611;28;20480;-90
2021/07/26 02:56:00;;;;;;;32.00;28.88;;;19.40;99.90;;;;;;5098935;28;20376;-89
2021/07/26 02:58:26;;;;;;;30.60;27.73;;;19.40;99.90;;;;;;5097089;28;20947;-89
2021/07/26 03:00:52;;;;;;;32.92;29.73;;;19.30;99.90;;;;;;5095538;28;20405;-89
2021/07/26 03:03:17;;;;;;;31.58;28.58;;;19.40;99.90;;;;;;5094524;28;20881;-87
2021/07/26 03:05:43;;;;;;;30.83;27.93;;;19.40;99.90;;;;;;5096070;28;20956;-91
2021/07/26 03:08:09;;;;;;;29.33;26.48;;;19.40;99.90;;;;;;5096986;28;20373;-87
2021/07/26 03:10:35;;;;;;;26.85;24.35;;;19.40;99.90;;;;;;5097722;28;20400;-91
2021/07/26 03:13:01;;;;;;;28.45;25.55;;;19.40;99.90;;;;;;5096098;28;20373;-90
2021/07/26 03:15:27;;;;;;;26.60;24.10;;;19.40;99.90;;;;;;5080321;28;20384;-88
2021/07/26 03:17:52;;;;;;;27.88;25.17;;;19.40;99.90;;;;;;5095998;28;20956;-88
2021/07/26 03:20:18;;;;;;;27.43;24.63;;;19.30;99.90;;;;;;5093530;28;20444;-88
2021/07/26 03:22:56;;;;;;;29.95;27.05;;;19.40;99.90;;;;;;5093794;28;20449;-89
2021/07/26 03:25:22;;;;;;;27.70;24.90;;;19.30;99.90;;;;;;5093735;28;20866;-87
2021/07/26 03:27:48;;;;;;;27.38;24.58;;;19.30;99.90;;;;;;5093734;28;20383;-88
2021/07/26 03:30:18;;;;;;;26.85;24.33;;;19.40;99.90;;;;;;5094239;28;20384;-90
2021/07/26 03:32:47;;;;;;;27.10;24.45;;;19.40;99.90;;;;;;5091951;28;20380;-89
2021/07/26 03:35:38;;;;;;;26.23;23.73;;;19.40;99.90;;;;;;5093131;28;20383;-88
2021/07/26 03:38:10;;;;;;;26.58;23.95;;;19.60;99.90;;;;;;5092831;28;20377;-87
2021/07/26 03:40:35;;;;;;;26.90;24.23;;;19.60;99.90;;;;;;5092639;28;20749;-89
2021/07/26 03:43:02;;;;;;;27.17;24.47;;;19.60;99.90;;;;;;5094382;28;20388;-89
2021/07/26 03:45:28;;;;;;;28.38;25.75;;;19.60;99.90;;;;;;5084748;28;20380;-89
2021/07/26 03:47:59;;;;;;;26.92;23.33;;;19.60;99.90;;;;;;5076157;28;20417;-90
2021/07/26 03:50:26;;;;;;;25.38;22.88;;;19.60;99.90;;;;;;5077178;28;20408;-90
2021/07/26 03:52:54;;;;;;;25.88;23.38;;;19.60;99.90;;;;;;5076637;28;20373;-91
2021/07/26 03:55:22;;;;;;;26.15;23.58;;;19.70;99.90;;;;;;5074801;28;20480;-89
2021/07/26 03:57:49;;;;;;;28.27;24.90;;;19.80;99.90;;;;;;5076700;28;20380;-88
2021/07/26 04:00:17;;;;;;;30.60;27.45;;;19.70;99.90;;;;;;5074370;28;20382;-88
2021/07/26 04:02:53;;;;;;;27.77;25.20;;;19.70;99.90;;;;;;5073661;28;20870;-89
2021/07/26 04:05:32;;;;;;;29.05;26.25;;;19.80;99.90;;;;;;5077308;28;20385;-88
2021/07/26 04:08:13;;;;;;;24.25;21.95;;;19.80;99.90;;;;;;5082190;28;20396;-88
2021/07/26 04:10:44;;;;;;;26.90;24.20;;;19.90;99.90;;;;;;5081305;28;20890;-91
2021/07/26 04:13:10;;;;;;;27.93;25.33;;;20.00;99.90;;;;;;5079916;28;20362;-88
2021/07/26 04:15:35;;;;;;;29.05;26.23;;;20.10;99.90;;;;;;5078065;28;20807;-85
2021/07/26 04:18:04;;;;;;;31.25;28.15;;;20.10;99.90;;;;;;5078590;28;20419;-89
2021/07/26 04:20:29;;;;;;;32.85;29.65;;;20.10;99.90;;;;;;5077373;28;20376;-89
2021/07/26 04:22:56;;;;;;;35.47;31.87;;;20.20;99.90;;;;;;5080601;28;20392;-88
2021/07/26 04:25:22;;;;;;;90.20;34.47;;;20.20;99.90;;;;;;5075838;28;20393;-89
2021/07/26 04:27:47;;;;;;;54.22;31.88;;;20.30;99.90;;;;;;5082091;28;20468;-88
2021/07/26 04:30:14;;;;;;;215.13;42.33;;;20.40;99.90;;;;;;5078933;28;20388;-88
2021/07/26 04:32:44;;;;;;;64.63;29.90;;;20.40;99.90;;;;;;5079919;28;20467;-88
2021/07/26 04:35:10;;;;;;;36.10;28.08;;;20.50;99.90;;;;;;5078636;28;20381;-87
2021/07/26 04:37:36;;;;;;;31.23;27.67;;;20.70;99.90;;;;;;5073016;28;20388;-88
2021/07/26 04:40:03;;;;;;;31.40;28.00;;;20.70;99.90;;;;;;5073435;28;20369;-87
2021/07/26 04:42:28;;;;;;;31.15;28.05;;;20.70;99.90;;;;;;5074091;28;21011;-90
2021/07/26 04:44:54;;;;;;;30.80;27.70;;;20.70;99.90;;;;;;5072841;28;20368;-87
2021/07/26 04:47:19;;;;;;;31.73;28.53;;;20.90;99.90;;;;;;5089830;28;20756;-87
2021/07/26 04:49:45;;;;;;;31.08;28.17;;;20.90;99.90;;;;;;5089449;28;20376;-89
2021/07/26 04:52:12;;;;;;;30.07;26.87;;;20.80;99.90;;;;;;5089558;28;20818;-89
2021/07/26 04:54:37;;;;;;;66.32;30.50;;;20.80;99.90;;;;;;5072551;28;20415;-88
2021/07/26 04:57:03;;;;;;;31.57;27.43;;;20.80;99.90;;;;;;5089740;28;20456;-87
2021/07/26 04:59:29;;;;;;;32.33;28.98;;;20.90;99.90;;;;;;5089170;28;20365;-87
2021/07/26 05:01:54;;;;;;;33.20;29.90;;;20.90;99.90;;;;;;5091252;28;20869;-89
2021/07/26 05:04:20;;;;;;;31.85;28.48;;;21.00;99.90;;;;;;5089696;28;20372;-87
2021/07/26 05:06:46;;;;;;;29.77;26.83;;;21.10;99.90;;;;;;5089536;28;20412;-87
2021/07/26 05:09:12;;;;;;;33.13;29.75;;;21.20;99.90;;;;;;5089567;28;20551;-87
2021/07/26 05:11:40;;;;;;;31.83;28.75;;;21.30;99.90;;;;;;5090722;28;20396;-87
2021/07/26 05:14:09;;;;;;;32.03;28.80;;;21.30;99.90;;;;;;5089844;28;20419;-87
2021/07/26 05:16:35;;;;;;;30.92;27.92;;;21.50;99.90;;;;;;5072590;28;20396;-88
2021/07/26 05:19:00;;;;;;;30.23;27.02;;;21.60;99.90;;;;;;5088936;28;20430;-88
2021/07/26 05:21:26;;;;;;;30.47;27.10;;;21.80;99.90;;;;;;5089017;28;20866;-89
2021/07/26 05:23:52;;;;;;;31.45;28.08;;;21.90;99.90;;;;;;5089094;28;20380;-85
2021/07/26 05:26:17;;;;;;;31.63;28.17;;;22.00;99.90;;;;;;5090144;28;20368;-89
2021/07/26 05:28:43;;;;;;;28.90;25.90;;;22.10;99.90;;;;;;5088893;28;20371;-87
2021/07/26 05:31:08;;;;;;;27.63;24.85;;;22.20;99.90;;;;;;5090258;28;20881;-87
2021/07/26 05:33:34;;;;;;;28.40;25.50;;;22.30;99.90;;;;;;5089104;28;20385;-88
2021/07/26 05:35:59;;;;;;;38.70;24.63;;;22.50;99.90;;;;;;5090775;28;20517;-88
2021/07/26 05:38:25;;;;;;;26.65;23.88;;;22.60;99.90;;;;;;5090178;28;20388;-88
2021/07/26 05:40:51;;;;;;;29.27;23.37;;;22.70;99.90;;;;;;5089443;28;20376;-88
2021/07/26 05:43:16;;;;;;;25.17;22.58;;;22.80;99.90;;;;;;5091001;28;20372;-89
2021/07/26 05:45:42;;;;;;;24.27;21.83;;;22.80;99.90;;;;;;5076849;28;20435;-87
2021/07/26 05:48:07;;;;;;;24.30;21.67;;;22.90;99.90;;;;;;5071944;28;20377;-87
2021/07/26 05:50:33;;;;;;;24.90;22.30;;;22.90;99.90;;;;;;5072011;28;20426;-87
2021/07/26 05:53:02;;;;;;;24.47;21.97;;;23.00;99.90;;;;;;5071948;28;20404;-87
2021/07/26 05:55:30;;;;;;;22.75;20.55;;;23.10;99.90;;;;;;5072328;28;20385;-87
2021/07/26 05:57:57;;;;;;;23.27;21.03;;;23.10;99.90;;;;;;5085434;28;20796;-87
2021/07/26 06:00:35;;;;;;;22.77;20.38;;;23.20;99.90;;;;;;5071667;28;20373;-88
2021/07/26 06:03:01;;;;;;;22.33;20.13;;;23.20;99.90;;;;;;5072071;28;20384;-87
2021/07/26 06:05:26;;;;;;;23.92;21.50;;;23.30;99.90;;;;;;5090071;28;20430;-88
2021/07/26 06:07:52;;;;;;;22.95;20.55;;;23.30;99.90;;;;;;5071436;28;20433;-88
2021/07/26 06:10:19;;;;;;;21.75;19.58;;;23.40;99.90;;;;;;5073944;28;20392;-88
2021/07/26 06:12:45;;;;;;;22.02;19.75;;;23.50;99.90;;;;;;5075760;28;20377;-89
2021/07/26 06:15:11;;;;;;;21.83;19.83;;;23.60;99.90;;;;;;5075182;28;20449;-87
2021/07/26 06:17:36;;;;;;;20.93;18.83;;;23.60;99.90;;;;;;5075421;28;20400;-88
2021/07/26 06:20:03;;;;;;;23.80;18.92;;;23.70;99.90;;;;;;5094032;28;20380;-88
2021/07/26 06:22:29;;;;;;;20.73;18.67;;;23.70;99.90;;;;;;5093911;28;20364;-89
2021/07/26 06:24:54;;;;;;;21.13;18.88;;;23.70;99.90;;;;;;5075391;28;20376;-88
2021/07/26 06:27:20;;;;;;;21.63;19.33;;;23.80;99.90;;;;;;5092113;28;20403;-88
2021/07/26 06:29:48;;;;;;;23.42;19.00;;;23.90;99.90;;;;;;5075388;28;20416;-89
2021/07/26 06:32:14;;;;;;;21.33;19.30;;;23.90;99.90;;;;;;5093335;28;20376;-89
2021/07/26 06:34:40;;;;;;;22.92;18.20;;;24.10;99.90;;;;;;5093316;28;20376;-88
2021/07/26 06:37:06;;;;;;;20.45;18.30;;;24.20;99.90;;;;;;5075131;28;20750;-88
2021/07/26 06:39:31;;;;;;;18.63;16.80;;;24.30;99.90;;;;;;5075274;28;20415;-89
2021/07/26 06:41:57;;;;;;;20.65;17.70;;;24.60;99.90;;;;;;5074965;28;20387;-88
2021/07/26 06:44:22;;;;;;;20.15;17.50;;;24.90;99.90;;;;;;5075405;28;20377;-88
2021/07/26 06:46:49;;;;;;;18.10;16.07;;;25.10;99.90;;;;;;5075309;28;20774;-88
2021/07/26 06:49:16;;;;;;;20.05;16.60;;;25.30;99.90;;;;;;5072747;28;20372;-87
2021/07/26 06:51:41;;;;;;;17.42;15.63;;;25.60;99.90;;;;;;5073995;28;20401;-87
2021/07/26 06:54:07;;;;;;;17.33;15.53;;;26.00;99.90;;;;;;5074530;28;20787;-87
2021/07/26 06:56:32;;;;;;;18.03;15.73;;;26.40;99.90;;;;;;5074036;28;20876;-88
2021/07/26 06:58:58;;;;;;;16.48;14.88;;;26.90;99.90;;;;;;5074804;28;20388;-89
2021/07/26 07:01:24;;;;;;;16.38;14.65;;;27.20;99.90;;;;;;5092942;28;20968;-87
2021/07/26 07:03:50;;;;;;;18.33;14.73;;;27.20;99.90;;;;;;5074248;28;20450;-88
2021/07/26 07:06:17;;;;;;;17.93;14.47;;;27.20;99.90;;;;;;5073899;28;20384;-88
2021/07/26 07:08:43;;;;;;;16.77;15.07;;;27.30;99.90;;;;;;5092124;28;20399;-88
2021/07/26 07:11:12;;;;;;;17.02;14.57;;;27.70;99.90;;;;;;5079767;28;20409;-88
2021/07/26 07:13:39;;;;;;;15.98;13.98;;;27.90;99.90;;;;;;5074322;28;20425;-89
2021/07/26 07:16:14;;;;;;;20.52;15.52;;;28.00;99.90;;;;;;5073986;28;20483;-88
2021/07/26 07:18:40;;;;;;;15.38;13.80;;;28.10;99.90;;;;;;5074299;28;20476;-88
2021/07/26 07:21:06;;;;;;;15.20;13.63;;;28.10;99.90;;;;;;5091327;28;20468;-87
2021/07/26 07:23:31;;;;;;;15.43;13.93;;;28.20;99.90;;;;;;5092501;28;21192;-86
2021/07/26 07:25:58;;;;;;;153.05;24.55;;;28.10;99.90;;;;;;5070794;28;20426;-86
2021/07/26 07:28:23;;;;;;;43.88;16.52;;;28.10;99.90;;;;;;5090252;28;20473;-86
2021/07/26 07:30:49;;;;;;;16.65;13.65;;;28.10;99.90;;;;;;5089882;28;20758;-88
2021/07/26 07:33:16;;;;;;;15.33;13.73;;;28.20;99.90;;;;;;5083582;28;20379;-88
2021/07/26 07:35:42;;;;;;;15.23;13.57;;;28.40;99.90;;;;;;5088050;28;20406;-88
2021/07/26 07:38:08;;;;;;;14.48;12.98;;;28.40;99.90;;;;;;5073764;28;20364;-88
2021/07/26 07:40:37;;;;;;;16.42;13.20;;;28.20;99.90;;;;;;5078889;28;20437;-88
2021/07/26 07:43:03;;;;;;;55.13;16.20;;;28.30;99.90;;;;;;5093999;28;20403;-86
2021/07/26 07:45:29;;;;;;;16.92;13.15;;;28.40;99.90;;;;;;5088611;28;20952;-86
2021/07/26 07:47:55;;;;;;;14.40;12.07;;;28.30;99.90;;;;;;5071403;28;20374;-89
2021/07/26 07:50:21;;;;;;;20.10;12.30;;;28.20;99.90;;;;;;5070613;28;20397;-87
2021/07/26 07:52:47;;;;;;;14.32;11.60;;;28.40;99.90;;;;;;5072739;28;20873;-89
2021/07/26 07:55:13;;;;;;;15.00;12.00;;;28.70;99.90;;;;;;5071541;28;20777;-89
2021/07/26 07:57:38;;;;;;;63.97;14.47;;;29.20;99.90;;;;;;5078066;28;20387;-88
2021/07/26 08:00:06;;;;;;;15.90;11.20;;;29.50;99.90;;;;;;5071317;28;20384;-87
2021/07/26 08:02:32;;;;;;;15.50;12.00;;;29.80;99.90;;;;;;5077981;28;20498;-87
2021/07/26 08:04:58;;;;;;;33.78;13.65;;;29.70;99.90;;;;;;5080907;28;20383;-88
2021/07/26 08:07:24;;;;;;;12.40;11.10;;;29.70;99.90;;;;;;5080666;28;20403;-85
2021/07/26 08:09:50;;;;;;;49.08;14.32;;;29.80;99.90;;;;;;5080375;28;20381;-90
2021/07/26 08:12:15;;;;;;;16.63;10.85;;;29.80;99.90;;;;;;5081360;28;20434;-87
2021/07/26 08:14:41;;;;;;;18.77;11.57;;;29.80;99.90;;;;;;5083301;28;20424;-88
2021/07/26 08:17:07;;;;;;;12.43;10.90;;;29.70;99.90;;;;;;5077950;28;20967;-88
2021/07/26 08:19:33;;;;;;;12.63;10.88;;;29.70;99.90;;;;;;5089982;28;20372;-87
2021/07/26 08:21:59;;;;;;;12.95;10.68;;;29.60;99.90;;;;;;5092164;28;20472;-86
2021/07/26 08:24:24;;;;;;;12.93;10.10;;;29.60;99.90;;;;;;5078110;28;20384;-87
2021/07/26 08:26:50;;;;;;;13.47;10.60;;;29.50;99.90;;;;;;5089595;28;20725;-88
2021/07/26 08:29:16;;;;;;;15.45;10.65;;;29.60;99.90;;;;;;5076188;28;20408;-89
2021/07/26 08:31:41;;;;;;;15.63;10.73;;;29.50;99.90;;;;;;5073344;28;20406;-90
2021/07/26 08:34:07;;;;;;;12.60;11.30;;;29.40;99.90;;;;;;5084876;28;20712;-87
2021/07/26 08:36:33;;;;;;;31.27;12.83;;;29.20;99.90;;;;;;5072371;28;20374;-86
2021/07/26 08:38:58;;;;;;;23.30;12.55;;;28.90;99.90;;;;;;5083374;28;20911;-87
2021/07/26 08:41:24;;;;;;;26.38;12.23;;;28.60;99.90;;;;;;5089981;28;20442;-88
2021/07/26 08:43:50;;;;;;;12.90;11.53;;;28.40;99.90;;;;;;5073729;28;20963;-91
2021/07/26 08:46:19;;;;;;;19.13;11.93;;;28.20;99.90;;;;;;5073307;28;20442;-87
2021/07/26 08:48:48;;;;;;;13.23;11.43;;;28.00;99.90;;;;;;5073370;28;20373;-87
2021/07/26 08:51:16;;;;;;;14.90;11.38;;;28.00;99.90;;;;;;5073538;28;20397;-89
2021/07/26 08:53:44;;;;;;;17.15;12.43;;;28.10;99.90;;;;;;5072525;28;20445;-89
2021/07/26 08:56:09;;;;;;;21.57;12.23;;;28.40;99.90;;;;;;5072567;28;20380;-87
2021/07/26 08:58:36;;;;;;;16.27;11.85;;;28.60;99.90;;;;;;5073604;28;20371;-89
2021/07/26 09:01:02;;;;;;;13.02;11.70;;;29.00;99.90;;;;;;5072994;28;20388;-87
2021/07/26 09:03:29;;;;;;;13.27;11.98;;;29.30;99.90;;;;;;5089177;28;20434;-86
2021/07/26 09:05:55;;;;;;;14.10;11.33;;;29.60;99.90;;;;;;5071735;28;20408;-88
2021/07/26 09:08:20;;;;;;;14.13;11.77;;;29.60;99.90;;;;;;5072372;28;20391;-88
2021/07/26 09:10:46;;;;;;;14.33;10.87;;;29.70;99.90;;;;;;5073044;28;20404;-90
2021/07/26 09:13:12;;;;;;;14.45;10.85;;;29.90;99.90;;;;;;5073423;28;20389;-89
2021/07/26 09:15:41;;;;;;;13.95;11.65;;;29.90;99.90;;;;;;5073027;28;20377;-89
2021/07/26 09:18:09;;;;;;;65.85;15.48;;;29.90;99.90;;;;;;5072619;28;20376;-87
2021/07/26 09:20:38;;;;;;;12.65;11.43;;;30.00;99.90;;;;;;5072971;28;20377;-87
2021/07/26 09:23:17;;;;;;;12.13;10.85;;;30.10;99.90;;;;;;5090602;28;20415;-87
2021/07/26 09:25:49;;;;;;;14.95;11.85;;;30.10;99.90;;;;;;5073152;28;20384;-89
2021/07/26 09:28:15;;;;;;;12.13;10.93;;;30.10;99.90;;;;;;5072686;28;20380;-88
2021/07/26 09:30:42;;;;;;;12.70;11.38;;;30.00;99.90;;;;;;5072611;28;20400;-87
2021/07/26 09:33:20;;;;;;;15.57;12.05;;;29.90;99.90;;;;;;5070256;28;20436;-91
2021/07/26 09:36:07;;;;;;;13.13;11.73;;;29.80;99.90;;;;;;5071497;28;20396;-87
2021/07/26 09:38:34;;;;;;;13.32;10.88;;;29.80;99.90;;;;;;5067139;28;20407;-86
2021/07/26 09:41:01;;;;;;;23.13;11.70;;;29.80;99.90;;;;;;5083713;28;20891;-88
2021/07/26 09:43:29;;;;;;;12.48;10.65;;;29.80;99.90;;;;;;5068400;28;20723;-86
2021/07/26 09:45:57;;;;;;;13.63;11.35;;;30.00;99.90;;;;;;5077593;28;20893;-87
2021/07/26 09:48:25;;;;;;;17.75;11.10;;;30.20;99.90;;;;;;5076586;28;20384;-89
2021/07/26 09:50:52;;;;;;;17.33;11.25;;;30.20;99.90;;;;;;5077162;28;20410;-87
2021/07/26 09:53:22;;;;;;;11.40;10.25;;;30.30;99.90;;;;;;5094394;28;20387;-88
2021/07/26 09:55:56;;;;;;;16.80;10.75;;;30.40;99.90;;;;;;5075838;28;20930;-89
2021/07/26 09:58:35;;;;;;;12.85;11.00;;;30.40;99.90;;;;;;5075435;28;20861;-87
2021/07/26 10:01:02;;;;;;;19.65;11.45;;;30.40;99.90;;;;;;5094096;28;20745;-87
2021/07/26 10:03:29;;;;;;;16.70;11.20;;;30.40;99.90;;;;;;5076149;28;20496;-90
2021/07/26 10:05:55;;;;;;;17.92;11.48;;;30.40;99.90;;;;;;5076341;28;20877;-89
2021/07/26 10:08:21;;;;;;;13.50;10.80;;;30.30;99.90;;;;;;5094099;28;20462;-88
2021/07/26 10:10:48;;;;;;;49.22;13.52;;;30.20;99.90;;;;;;5084664;28;20410;-88
2021/07/26 10:13:14;;;;;;;11.13;10.07;;;30.20;99.90;;;;;;5083626;28;20372;-87
2021/07/26 10:15:40;;;;;;;11.27;10.10;;;30.20;99.90;;;;;;5069335;28;20381;-89
2021/07/26 10:18:06;;;;;;;11.73;10.35;;;30.20;99.90;;;;;;5068154;28;20413;-89
2021/07/26 10:20:41;;;;;;;11.07;9.93;;;30.30;99.90;;;;;;5067844;28;20372;-86
2021/07/26 10:23:45;;;;;;;12.18;9.18;;;30.40;99.90;;;;;;5063359;28;20389;-87
2021/07/26 10:26:15;;;;;;;11.73;9.97;;;30.40;99.90;;;;;;5002311;28;20397;-87
2021/07/26 10:28:57;;;;;;;9.90;9.00;;;30.40;99.90;;;;;;5062148;28;20392;-90
2021/07/26 10:31:35;;;;;;;30.35;11.15;;;30.40;99.90;;;;;;5062620;28;20769;-88
2021/07/26 10:34:01;;;;;;;113.35;18.40;;;;;;;;;;5071078;28;20384;-85
2021/07/26 10:36:52;;;;;;;11.05;9.40;;;30.40;99.90;;;;;;5074982;28;20459;-86
2021/07/26 10:39:19;;;;;;;16.63;9.10;;;30.10;99.90;;;;;;5076217;28;20410;-88
2021/07/26 10:41:45;;;;;;;12.70;8.50;;;30.00;99.90;;;;;;5067943;28;20416;-88
2021/07/26 10:44:16;;;;;;;12.10;8.02;;;29.90;99.90;;;;;;5067199;28;20417;-86
2021/07/26 10:49:38;;;;;;;9.50;8.50;;;30.00;99.90;;;;;;5081990;28;20441;-86
2021/07/26 10:52:04;;;;;;;9.40;8.35;;;30.20;99.90;;;;;;5087285;28;20523;-88
2021/07/26 10:54:32;;;;;;;11.82;9.70;;;30.30;99.90;;;;;;5079666;28;21011;-89
2021/07/26 10:57:05;;;;;;;13.50;9.48;;;30.30;99.90;;;;;;5084444;28;20414;-88
2021/07/26 10:59:51;;;;;;;10.93;8.63;;;30.40;99.90;;;;;;5080502;28;20448;-88
2021/07/26 11:02:34;;;;;;;13.40;9.18;;;30.40;99.90;;;;;;5057473;28;21143;-88
2021/07/26 11:05:21;;;;;;;9.90;8.93;;;30.40;99.90;;;;;;5085272;28;20368;-90
2021/07/26 11:07:47;;;;;;;10.30;9.20;;;30.20;99.90;;;;;;5080768;28;20372;-89
2021/07/26 11:10:48;;;;;;;11.33;8.87;;;29.80;99.90;;;;;;5060469;28;20384;-87
2021/07/26 11:13:14;;;;;;;11.35;8.60;;;29.60;99.90;;;;;;5060444;28;20503;-86
2021/07/26 11:15:50;;;;;;;13.80;8.95;;;29.60;99.90;;;;;;5076774;28;20491;-87
2021/07/26 11:18:20;;;;;;;9.70;8.75;;;29.70;99.90;;;;;;5059918;28;20467;-89
2021/07/26 11:20:57;;;;;;;9.30;8.30;;;29.70;99.90;;;;;;5067018;28;20386;-88
2021/07/26 11:23:35;;;;;;;9.73;8.48;;;29.60;99.90;;;;;;5062275;28;20392;-88
2021/07/26 11:26:02;;;;;;;9.32;8.32;;;29.60;99.90;;;;;;5064272;28;20437;-86
2021/07/26 11:28:38;;;;;;;10.93;8.68;;;29.60;99.90;;;;;;5066408;28;20384;-91
2021/07/26 11:31:03;;;;;;;11.85;8.55;;;29.70;99.90;;;;;;5085288;28;20470;-91
2021/07/26 11:33:30;;;;;;;9.53;8.63;;;29.80;99.90;;;;;;5066796;28;20870;-86
2021/07/26 11:35:58;;;;;;;13.57;8.82;;;30.00;99.90;;;;;;5085176;28;20412;-86
2021/07/26 11:38:24;;;;;;;9.93;8.40;;;30.10;99.90;;;;;;5086038;28;20949;-87
2021/07/26 11:40:50;;;;;;;9.68;8.77;;;30.00;99.90;;;;;;5063644;28;20459;-88
2021/07/26 11:43:16;;;;;;;44.37;10.93;;;30.00;99.90;;;;;;5063136;28;21114;-87
2021/07/26 11:45:47;;;;;;;18.70;9.70;;;30.00;99.90;;;;;;5063117;28;20381;-88
2021/07/26 11:48:14;;;;;;;17.43;9.10;;;30.00;99.90;;;;;;5087989;28;20473;-88
2021/07/26 11:50:40;;;;;;;29.52;10.15;;;29.80;99.90;;;;;;5079374;28;20408;-87
2021/07/26 11:53:06;;;;;;;21.73;10.48;;;29.70;99.90;;;;;;5081236;28;20388;-85
2021/07/26 11:55:37;;;;;;;18.47;10.57;;;29.50;99.90;;;;;;5085355;28;20438;-85
2021/07/26 11:58:09;;;;;;;24.27;11.55;;;29.00;99.90;;;;;;5069553;28;20938;-86
2021/07/26 12:00:43;;;;;;;19.13;10.60;;;28.40;99.90;;;;;;5071657;28;20372;-87
2021/07/26 12:03:13;;;;;;;14.45;10.40;;;27.90;99.90;;;;;;5060778;28;20393;-87
2021/07/26 12:05:39;;;;;;;12.38;9.20;;;27.60;99.90;;;;;;5072946;28;20397;-87
2021/07/26 12:08:18;;;;;;;14.23;9.60;;;27.40;99.90;;;;;;5063426;28;20427;-90
2021/07/26 12:10:46;;;;;;;10.85;7.63;;;27.40;99.90;;;;;;5082763;28;20408;-89
2021/07/26 12:13:17;;;;;;;11.83;7.70;;;27.70;99.90;;;;;;5085712;28;20420;-86
2021/07/26 12:15:44;;;;;;;9.90;7.33;;;27.80;99.90;;;;;;5087617;28;20402;-86
2021/07/26 12:18:18;;;;;;;9.05;7.90;;;27.90;99.90;;;;;;5087592;28;20392;-86
2021/07/26 12:20:52;;;;;;;8.85;7.18;;;28.00;99.90;;;;;;5065856;28;20959;-84
2021/07/26 12:23:23;;;;;;;7.53;6.00;;;28.10;99.90;;;;;;5060480;28;20378;-89
2021/07/26 12:25:56;;;;;;;6.70;5.68;;;28.20;99.90;;;;;;5081233;28;20480;-87
2021/07/26 12:28:43;;;;;;;8.95;5.72;;;28.40;99.90;;;;;;5060944;28;20486;-89
2021/07/26 12:31:25;;;;;;;7.32;5.70;;;28.30;99.90;;;;;;5075056;28;20408;-89
2021/07/26 12:34:18;;;;;;;6.75;5.05;;;28.50;99.90;;;;;;5079247;28;20392;-88
2021/07/26 12:36:52;;;;;;;5.72;5.13;;;28.60;99.90;;;;;;5059422;28;20388;-92